West Bainbridge, New York
Current Conditions -  °F | °C
As of 8:53 PM on Saturday 22 Nov 2014 (Local Time) from KBGM Reporting Station
Light Rain Light Rain  
Wind Chill: 27°   Ceiling: 4700
Heat Index: 36°   Visibility: 6mi
Dew Point: 31°   Wind: 15mph
Humidity: 82%   Direction: 230°SW
Pressure: 30.06"   Gusts: NA
Location:  42.3372°N, 75.5118°W
Report Text: KBGM 230153Z 23013KT 6SM -RA FEW028 SCT037 OVC047 02/M01 A3006 RMK AO2 RAB03 SLP199 P0001 T00221006
Loading
Personal Weather Stations






























Interactive Weather Map New forecast layout! Learn more

10-Day Weather Forecast

Advertisements
Track Severe Weather on mobile